createdAt,value
2023-04-15T00:00:58.551Z,100636.34
2023-04-15T00:03:25.935Z,100631.09
2023-04-15T00:05:53.100Z,100629.25
2023-04-15T00:08:20.618Z,100631.16
2023-04-15T00:10:47.913Z,100630.28
2023-04-15T00:13:15.474Z,100630.28
2023-04-15T00:15:43.315Z,100624.94
2023-04-15T00:18:10.426Z,100625.78
2023-04-15T00:20:37.742Z,100629.97
2023-04-15T00:23:05.658Z,100627.25
2023-04-15T00:25:33.054Z,100634.22
2023-04-15T00:28:00.123Z,100634.19
2023-04-15T00:30:27.212Z,100633.25
2023-04-15T00:32:54.178Z,100618.41
2023-04-15T00:35:21.796Z,100634.13
2023-04-15T00:37:48.762Z,100629.84
2023-04-15T00:40:19.605Z,100637.69
2023-04-15T00:42:47.111Z,100629.75
2023-04-15T00:45:14.225Z,100631.19
2023-04-15T00:47:43.040Z,100637.44
2023-04-15T00:50:12.644Z,100637.31
2023-04-15T00:52:40.916Z,100634.72
2023-04-15T00:55:09.269Z,100633.84
2023-04-15T00:57:36.692Z,100635.63
2023-04-15T01:00:05.781Z,100637.31
2023-04-15T01:02:33.651Z,100634.66
2023-04-15T01:05:01.035Z,100636.34
2023-04-15T01:07:28.013Z,100632.84
2023-04-15T01:09:55.672Z,100640.78
2023-04-15T01:12:22.955Z,100635.47
2023-04-15T01:14:50.087Z,100632.84
2023-04-15T01:17:17.748Z,100636.34
2023-04-15T01:19:44.711Z,100624.94
2023-04-15T01:22:11.827Z,100639.88
2023-04-15T01:24:38.954Z,100635.41
2023-04-15T01:27:06.532Z,100641.56
2023-04-15T01:29:38.618Z,100638.19
2023-04-15T01:32:05.994Z,100633.78
2023-04-15T01:34:35.470Z,100642.53
2023-04-15T01:37:02.787Z,100639.06
2023-04-15T01:39:29.757Z,100642.50
2023-04-15T01:41:57.518Z,100648.63
2023-04-15T01:44:24.597Z,100641.63
2023-04-15T01:46:51.627Z,100639.03
2023-04-15T01:49:19.007Z,100646.09
2023-04-15T01:51:45.984Z,100636.44
2023-04-15T01:54:12.961Z,100647.94
2023-04-15T01:56:40.037Z,100647.97
2023-04-15T01:59:07.044Z,100641.75
2023-04-15T02:01:34.309Z,100643.59
2023-04-15T02:04:01.824Z,100645.34
2023-04-15T02:06:28.825Z,100652.44
2023-04-15T02:08:55.814Z,100641.91
2023-04-15T02:11:23.238Z,100645.38
2023-04-15T02:13:50.369Z,100653.22
2023-04-15T02:16:19.278Z,100654.03
2023-04-15T02:18:47.483Z,100661.94
2023-04-15T02:21:14.858Z,100658.47
2023-04-15T02:23:41.882Z,100651.50
2023-04-15T02:26:08.836Z,100651.56
2023-04-15T02:28:35.939Z,100654.16
2023-04-15T02:31:07.006Z,100652.31
2023-04-15T02:33:34.379Z,100653.16
2023-04-15T02:36:01.782Z,100656.50
2023-04-15T02:38:28.787Z,100663.50
2023-04-15T02:40:55.770Z,100666.03
2023-04-15T02:43:22.952Z,100670.56
2023-04-15T02:45:50.197Z,100669.66
2023-04-15T02:48:19.510Z,100671.38
2023-04-15T02:50:47.904Z,100675.75
2023-04-15T02:53:15.116Z,100681.00
2023-04-15T02:55:43.034Z,100680.25
2023-04-15T02:58:10.134Z,100682.94
2023-04-15T03:00:37.116Z,100677.63
2023-04-15T03:03:06.159Z,100686.31
2023-04-15T03:05:33.459Z,100699.38
2023-04-15T03:08:01.418Z,100692.16
2023-04-15T03:10:28.626Z,100693.94
2023-04-15T03:12:55.735Z,100690.28
2023-04-15T03:15:23.130Z,100688.34
2023-04-15T03:17:50.140Z,100698.91
2023-04-15T03:20:17.288Z,100696.34
2023-04-15T03:22:44.652Z,100699.75
2023-04-15T03:25:11.906Z,100711.13
2023-04-15T03:27:39.300Z,100713.63
2023-04-15T03:30:07.924Z,100715.28
2023-04-15T03:32:35.068Z,100715.34
2023-04-15T03:35:02.085Z,100721.47
2023-04-15T03:37:29.107Z,100730.22
2023-04-15T03:39:56.075Z,100732.00
2023-04-15T03:42:23.398Z,100726.84
2023-04-15T03:44:50.689Z,100730.34
2023-04-15T03:47:17.686Z,100731.31
2023-04-15T03:49:44.674Z,100740.84
2023-04-15T03:52:11.657Z,100736.59
2023-04-15T03:54:38.669Z,100735.75
2023-04-15T03:57:05.806Z,100739.13
2023-04-15T03:59:32.792Z,100744.25
2023-04-15T04:02:00.187Z,100739.09
2023-04-15T04:04:27.296Z,100751.31
2023-04-15T04:06:54.360Z,100747.88
2023-04-15T04:09:21.303Z,100758.38
2023-04-15T04:11:48.298Z,100760.97
2023-04-15T04:14:15.954Z,100762.69
2023-04-15T04:16:42.947Z,100767.06
2023-04-15T04:19:09.988Z,100763.56
2023-04-15T04:21:37.152Z,100772.16
2023-04-15T04:24:04.187Z,100770.44
2023-04-15T04:26:31.235Z,100782.00
2023-04-15T04:28:58.169Z,100784.69
2023-04-15T04:31:25.207Z,100777.63
2023-04-15T04:33:52.202Z,100781.16
2023-04-15T04:36:19.264Z,100783.81
2023-04-15T04:38:46.436Z,100789.88
2023-04-15T04:41:13.521Z,100798.56
2023-04-15T04:43:40.512Z,100800.34
2023-04-15T04:46:07.788Z,100805.59
2023-04-15T04:48:35.183Z,100802.91
2023-04-15T04:51:02.724Z,100810.72
2023-04-15T04:53:29.859Z,100819.38
2023-04-15T04:55:57.435Z,100827.22
2023-04-15T04:58:24.528Z,100822.88
2023-04-15T05:00:52.029Z,100831.69
2023-04-15T05:03:19.530Z,100836.06
2023-04-15T05:05:46.998Z,100831.72
2023-04-15T05:08:18.398Z,100842.16
2023-04-15T05:10:45.506Z,100852.69
2023-04-15T05:13:13.442Z,100849.22
2023-04-15T05:15:41.445Z,100855.25
2023-04-15T05:18:09.779Z,100864.06
2023-04-15T05:20:36.848Z,100871.09
2023-04-15T05:23:03.952Z,100867.69
2023-04-15T05:25:30.954Z,100877.41
2023-04-15T05:27:58.006Z,100873.91
2023-04-15T05:30:25.127Z,100887.19
2023-04-15T05:32:52.442Z,100887.22
2023-04-15T05:35:19.433Z,100886.34
2023-04-15T05:37:46.756Z,100898.78
2023-04-15T05:40:14.345Z,100897.13
2023-04-15T05:42:41.429Z,100900.69
2023-04-15T05:45:09.425Z,100904.31
2023-04-15T05:47:37.592Z,100907.94
2023-04-15T05:50:05.457Z,100911.63
2023-04-15T05:52:32.654Z,100917.47
2023-04-15T05:54:59.745Z,100925.66
2023-04-15T05:57:26.735Z,100930.16
2023-04-15T05:59:54.040Z,100931.97
2023-04-15T06:02:21.214Z,100946.28
2023-04-15T06:04:48.608Z,100940.16
2023-04-15T06:07:15.793Z,100952.97
2023-04-15T06:09:42.790Z,100953.69
2023-04-15T06:12:13.181Z,100965.38
2023-04-15T06:14:40.695Z,100959.25
2023-04-15T06:17:08.559Z,100966.44
2023-04-15T06:19:39.107Z,100968.25
2023-04-15T06:22:07.310Z,100969.34
2023-04-15T06:24:34.377Z,100970.41
2023-04-15T06:27:02.369Z,100967.16
2023-04-15T06:29:29.499Z,100975.00
2023-04-15T06:31:56.884Z,100978.78
2023-04-15T06:34:24.022Z,100984.97
2023-04-15T06:36:51.253Z,100998.28
2023-04-15T06:39:18.341Z,100991.44
2023-04-15T06:41:45.412Z,101004.94
2023-04-15T06:44:12.662Z,101004.00
2023-04-15T06:46:39.914Z,101006.75
2023-04-15T06:49:08.229Z,101011.63
2023-04-15T06:51:36.306Z,101012.50
2023-04-15T06:54:06.006Z,101011.72
2023-04-15T06:56:33.965Z,101010.94
2023-04-15T06:59:01.512Z,101015.41
2023-04-15T07:01:29.023Z,101013.69
2023-04-15T07:03:56.030Z,101016.50
2023-04-15T07:06:23.129Z,101020.28
2023-04-15T07:08:50.425Z,101025.56
2023-04-15T07:11:17.551Z,101029.16
2023-04-15T07:13:44.572Z,101023.03
2023-04-15T07:16:11.623Z,101029.13
2023-04-15T07:18:38.835Z,101033.50
2023-04-15T07:21:05.986Z,101036.28
2023-04-15T07:23:32.924Z,101042.50
2023-04-15T07:26:00.195Z,101042.59
2023-04-15T07:28:27.511Z,101048.09
2023-04-15T07:30:54.966Z,101046.47
2023-04-15T07:33:22.130Z,101057.13
2023-04-15T07:35:50.073Z,101065.84
2023-04-15T07:38:17.377Z,101068.69
2023-04-15T07:40:44.477Z,101061.91
2023-04-15T07:43:11.829Z,101074.41
2023-04-15T07:45:38.797Z,101072.56
2023-04-15T07:48:06.802Z,101077.00
2023-04-15T07:50:33.809Z,101078.91
2023-04-15T07:53:00.813Z,101070.25
2023-04-15T07:55:28.371Z,101076.50
2023-04-15T07:57:55.446Z,101087.97
2023-04-15T08:00:22.608Z,101089.84
2023-04-15T08:02:50.083Z,101093.34
2023-04-15T08:05:17.309Z,101101.41
2023-04-15T08:07:45.549Z,101106.69
2023-04-15T08:10:12.580Z,101113.91
2023-04-15T08:12:39.776Z,101110.53
2023-04-15T08:15:08.366Z,101122.94
2023-04-15T08:17:35.912Z,101129.13
2023-04-15T08:20:05.988Z,101135.13
2023-04-15T08:22:33.024Z,101144.16
2023-04-15T08:25:00.032Z,101141.53
2023-04-15T08:27:27.066Z,101154.75
2023-04-15T08:29:54.058Z,101160.22
2023-04-15T08:32:21.333Z,101156.72
2023-04-15T08:34:48.819Z,101158.59
2023-04-15T08:37:15.815Z,101164.66
2023-04-15T08:39:44.187Z,101162.03
2023-04-15T08:42:21.492Z,101171.03
2023-04-15T08:44:49.295Z,101171.03
2023-04-15T08:47:22.714Z,101175.44
2023-04-15T08:49:53.988Z,101181.66
2023-04-15T08:52:21.574Z,101179.72
2023-04-15T08:54:48.983Z,101185.22
2023-04-15T08:57:16.314Z,101191.53
2023-04-15T08:59:43.996Z,101190.63
2023-04-15T09:02:12.043Z,101192.44
2023-04-15T09:04:39.118Z,101204.06
2023-04-15T09:07:06.227Z,101202.28
2023-04-15T09:09:33.854Z,101212.03
2023-04-15T09:12:02.299Z,101214.63
2023-04-15T09:14:32.179Z,101221.88
2023-04-15T09:17:05.273Z,101225.22
2023-04-15T09:19:34.598Z,101233.16
2023-04-15T09:22:02.679Z,101230.56
2023-04-15T09:24:42.299Z,101239.47
2023-04-15T09:27:09.528Z,101237.78
2023-04-15T09:29:37.335Z,101236.06
2023-04-15T09:32:15.629Z,101244.88
2023-04-15T09:34:43.743Z,101242.25
2023-04-15T09:37:11.313Z,101248.50
2023-04-15T09:39:52.165Z,101255.66
2023-04-15T09:42:26.921Z,101255.72
2023-04-15T09:44:54.229Z,101260.16
2023-04-15T09:47:32.480Z,101262.75
2023-04-15T09:50:01.314Z,101265.34
2023-04-15T09:52:29.097Z,101273.28
2023-04-15T09:54:59.111Z,101276.03
2023-04-15T09:57:34.295Z,101266.28
2023-04-15T10:00:01.299Z,101274.28
2023-04-15T10:02:30.223Z,101275.22
2023-04-15T10:04:57.801Z,101276.91
2023-04-15T10:07:27.098Z,101275.22
2023-04-15T10:09:55.087Z,101281.41
2023-04-15T10:12:23.195Z,101280.50
2023-04-15T10:14:59.528Z,101278.81
2023-04-15T10:17:35.547Z,101283.19
2023-04-15T10:20:04.949Z,101277.91
2023-04-15T10:22:33.345Z,101275.28
2023-04-15T10:25:04.268Z,101299.19
2023-04-15T10:27:31.953Z,101286.78
2023-04-15T10:30:01.902Z,101288.63
2023-04-15T10:32:29.751Z,101290.34
2023-04-15T10:34:58.165Z,101287.75
2023-04-15T10:37:39.159Z,101304.56
2023-04-15T10:40:32.093Z,101306.31
2023-04-15T10:43:03.681Z,101309.84
2023-04-15T10:45:37.917Z,101308.97
2023-04-15T10:48:08.215Z,101316.03
2023-04-15T10:50:37.321Z,101311.56
2023-04-15T10:53:05.658Z,101314.25
2023-04-15T10:55:34.656Z,101309.84
2023-04-15T10:58:02.944Z,101327.56
2023-04-15T11:00:37.573Z,101325.75
2023-04-15T11:03:09.476Z,101330.19
2023-04-15T11:05:42.858Z,101331.06
2023-04-15T11:08:11.287Z,101333.72
2023-04-15T11:10:38.160Z,101324.91
2023-04-15T11:13:18.456Z,101327.56
2023-04-15T11:15:47.057Z,101335.50
2023-04-15T11:18:25.817Z,101333.72
2023-04-15T11:21:05.649Z,101337.25
2023-04-15T11:23:46.986Z,101335.50
2023-04-15T11:26:14.065Z,101337.25
2023-04-15T11:28:44.924Z,101338.16
2023-04-15T11:31:17.878Z,101351.44
2023-04-15T11:33:58.973Z,101359.41
2023-04-15T11:36:28.038Z,101354.09
2023-04-15T11:38:56.197Z,101349.69
2023-04-15T11:41:23.961Z,101355.88
2023-04-15T11:43:52.650Z,101355.84
2023-04-15T11:46:21.469Z,101357.63
2023-04-15T11:48:48.472Z,101364.75
2023-04-15T11:51:15.756Z,101355.88
2023-04-15T11:53:48.649Z,101367.38
2023-04-15T11:56:23.856Z,101368.28
2023-04-15T11:59:02.317Z,101374.44
2023-04-15T12:01:39.413Z,101376.16
2023-04-15T12:04:22.556Z,101378.03
2023-04-15T12:06:52.102Z,101378.84
2023-04-15T12:09:20.483Z,101383.31
2023-04-15T12:11:53.855Z,101391.25
2023-04-15T12:14:32.574Z,101391.28
2023-04-15T12:17:05.400Z,101391.28
2023-04-15T12:19:45.620Z,101402.81
2023-04-15T12:22:17.741Z,101396.50
2023-04-15T12:24:48.226Z,101401.03
2023-04-15T12:27:17.389Z,101406.19
2023-04-15T12:29:44.517Z,101424.03
2023-04-15T12:32:21.030Z,101416.94
2023-04-15T12:34:54.522Z,101424.94
2023-04-15T12:37:21.852Z,101430.22
2023-04-15T12:39:50.140Z,101435.56
2023-04-15T12:42:18.199Z,101440.88
2023-04-15T12:44:45.300Z,101447.94
2023-04-15T12:47:13.328Z,101440.88
2023-04-15T12:49:41.265Z,101451.47
2023-04-15T12:52:08.564Z,101458.34
2023-04-15T12:54:36.430Z,101453.97
2023-04-15T12:57:06.755Z,101459.28
2023-04-15T12:59:35.069Z,101472.66
2023-04-15T13:02:03.329Z,101475.09
2023-04-15T13:04:31.397Z,101475.38
2023-04-15T13:06:58.927Z,101467.44
2023-04-15T13:09:26.044Z,101473.53
2023-04-15T13:11:54.276Z,101478.84
2023-04-15T13:14:21.337Z,101479.72
2023-04-15T13:16:48.433Z,101485.84
2023-04-15T13:19:15.868Z,101489.47
2023-04-15T13:21:42.896Z,101501.06
2023-04-15T13:24:10.000Z,101495.66
2023-04-15T13:26:37.947Z,101492.13
2023-04-15T13:29:05.274Z,101505.31
2023-04-15T13:31:32.551Z,101492.13
2023-04-15T13:33:59.820Z,101507.06
2023-04-15T13:36:27.381Z,101512.25
2023-04-15T13:38:54.859Z,101500.06
2023-04-15T13:41:21.940Z,101508.84
2023-04-15T13:43:49.021Z,101501.88
2023-04-15T13:46:16.177Z,101514.16
2023-04-15T13:48:43.238Z,101516.78
2023-04-15T13:51:10.419Z,101516.84
2023-04-15T13:53:38.809Z,101510.63
2023-04-15T13:56:10.560Z,101525.75
2023-04-15T13:58:38.340Z,101527.50
2023-04-15T14:01:07.465Z,101527.44
2023-04-15T14:03:38.319Z,101536.28
2023-04-15T14:06:06.625Z,101538.13
2023-04-15T14:08:33.962Z,101539.81
2023-04-15T14:11:01.310Z,101534.44
2023-04-15T14:13:28.440Z,101546.00
2023-04-15T14:15:56.667Z,101538.16
2023-04-15T14:18:23.701Z,101559.38
2023-04-15T14:20:50.704Z,101561.03
2023-04-15T14:23:17.685Z,101554.00
2023-04-15T14:25:46.713Z,101551.25
2023-04-15T14:28:15.819Z,101559.59
2023-04-15T14:30:42.984Z,101568.22
2023-04-15T14:33:10.208Z,101566.34
2023-04-15T14:35:37.985Z,101571.47
2023-04-15T14:38:06.151Z,101577.47
2023-04-15T14:40:33.951Z,101582.09
2023-04-15T14:43:00.901Z,101586.22
2023-04-15T14:45:27.932Z,101573.59
2023-04-15T14:47:54.991Z,101578.81
2023-04-15T14:50:22.209Z,101579.47
2023-04-15T14:52:49.226Z,101595.72
2023-04-15T14:55:16.501Z,101591.03
2023-04-15T14:57:43.653Z,101595.28
2023-04-15T15:00:14.542Z,101602.16
2023-04-15T15:02:43.070Z,101617.47
2023-04-15T15:05:12.013Z,101607.53
2023-04-15T15:07:41.074Z,101601.72
2023-04-15T15:10:09.063Z,101603.41
2023-04-15T15:12:37.154Z,101596.44
2023-04-15T15:15:15.749Z,101606.78
2023-04-15T15:17:53.704Z,101608.94
2023-04-15T15:20:21.347Z,101609.50
2023-04-15T15:22:48.362Z,101623.22
2023-04-15T15:25:15.340Z,101619.16
2023-04-15T15:27:42.621Z,101626.50
2023-04-15T15:30:11.474Z,101625.78
2023-04-15T15:32:42.804Z,101620.03
2023-04-15T15:35:10.786Z,101630.94
2023-04-15T15:37:38.427Z,101636.00
2023-04-15T15:40:06.724Z,101633.31
2023-04-15T15:42:34.356Z,101638.66
2023-04-15T15:45:03.987Z,101657.66
2023-04-15T15:47:31.208Z,101653.31
2023-04-15T15:49:58.303Z,101659.59
2023-04-15T15:52:25.300Z,101661.44
2023-04-15T15:54:52.267Z,101670.19
2023-04-15T15:57:19.283Z,101674.47
2023-04-15T15:59:46.387Z,101674.53
2023-04-15T16:02:14.409Z,101680.81
2023-04-15T16:04:43.222Z,101677.38
2023-04-15T16:07:15.771Z,101696.13
2023-04-15T16:09:42.886Z,101694.19
2023-04-15T16:12:09.916Z,101689.63
2023-04-15T16:14:36.868Z,101712.44
2023-04-15T16:17:03.854Z,101705.16
2023-04-15T16:19:31.269Z,101716.69
2023-04-15T16:21:59.970Z,101706.81
2023-04-15T16:24:27.962Z,101728.84
2023-04-15T16:26:57.152Z,101727.22
2023-04-15T16:29:24.271Z,101731.50
2023-04-15T16:31:51.469Z,101727.97
2023-04-15T16:34:19.281Z,101737.88
2023-04-15T16:36:46.464Z,101736.06
2023-04-15T16:39:13.472Z,101738.72
2023-04-15T16:41:42.388Z,101745.97
2023-04-15T16:44:10.826Z,101750.63
2023-04-15T16:46:39.655Z,101747.06
2023-04-15T16:49:07.883Z,101761.03
2023-04-15T16:51:34.866Z,101761.03
2023-04-15T16:54:01.865Z,101761.94
2023-04-15T16:56:29.391Z,101758.97
2023-04-15T16:58:56.434Z,101772.59
2023-04-15T17:01:23.639Z,101776.63
2023-04-15T17:03:52.308Z,101775.88
2023-04-15T17:06:21.231Z,101774.13
2023-04-15T17:08:48.252Z,101783.25
2023-04-15T17:11:15.598Z,101781.78
2023-04-15T17:13:42.632Z,101791.31
2023-04-15T17:16:09.999Z,101784.06
2023-04-15T17:18:38.256Z,101787.72
2023-04-15T17:21:06.256Z,101798.25
2023-04-15T17:23:33.348Z,101790.97
2023-04-15T17:26:00.376Z,101793.63
2023-04-15T17:28:27.331Z,101806.41
2023-04-15T17:30:54.385Z,101801.78
2023-04-15T17:33:59.025Z,101807.06
2023-04-15T17:36:08.834Z,101817.22
2023-04-15T17:38:35.899Z,101818.66
2023-04-15T17:41:02.939Z,101820.28
2023-04-15T17:43:29.882Z,101808.75
2023-04-15T17:45:58.589Z,101822.59
2023-04-15T17:48:26.426Z,101818.00
2023-04-15T17:50:53.402Z,101824.31
2023-04-15T17:53:20.373Z,101831.75
2023-04-15T17:55:47.406Z,101833.50
2023-04-15T17:58:14.417Z,101833.97
2023-04-15T18:00:41.397Z,101841.75
2023-04-15T18:03:08.578Z,101850.91
2023-04-15T18:05:35.779Z,101843.22
2023-04-15T18:08:02.741Z,101853.50
2023-04-15T18:10:29.955Z,101850.69
2023-04-15T18:12:57.176Z,101857.47
2023-04-15T18:15:24.148Z,101857.50
2023-04-15T18:17:51.245Z,101862.38
2023-04-15T18:20:18.945Z,101863.06
2023-04-15T18:22:45.982Z,101864.66
2023-04-15T18:25:12.967Z,101870.69
2023-04-15T18:27:40.219Z,101874.13
2023-04-15T18:30:11.991Z,101881.31
2023-04-15T18:32:39.343Z,101881.47
2023-04-15T18:35:07.598Z,101897.16
2023-04-15T18:37:34.699Z,101902.28
2023-04-15T18:40:02.171Z,101908.16
2023-04-15T18:42:29.242Z,101912.34
2023-04-15T18:44:56.252Z,101902.72
2023-04-15T18:47:24.681Z,101916.22
2023-04-15T18:49:53.784Z,101914.22
2023-04-15T18:52:21.051Z,101919.28
2023-04-15T18:54:48.217Z,101925.28
2023-04-15T18:57:16.701Z,101941.47
2023-04-15T18:59:50.716Z,101946.38
2023-04-15T19:02:17.755Z,101946.66
2023-04-15T19:04:44.860Z,101962.41
2023-04-15T19:07:12.081Z,101971.56
2023-04-15T19:09:39.137Z,101961.31
2023-04-15T19:12:06.384Z,101965.09
2023-04-15T19:14:33.418Z,101972.84
2023-04-15T19:17:00.400Z,101982.03
2023-04-15T19:19:27.919Z,101984.19
2023-04-15T19:21:54.963Z,101993.53
2023-04-15T19:24:22.549Z,101998.44
2023-04-15T19:26:51.180Z,102006.59
2023-04-15T19:29:18.465Z,102009.28
2023-04-15T19:31:45.651Z,101995.97
2023-04-15T19:34:12.663Z,102011.09
2023-04-15T19:36:39.713Z,102011.00
2023-04-15T19:39:06.955Z,102014.16
2023-04-15T19:41:34.071Z,102010.38
2023-04-15T19:44:01.126Z,102022.44
2023-04-15T19:46:28.249Z,102019.81
2023-04-15T19:48:56.093Z,102025.66
2023-04-15T19:51:23.108Z,102021.09
2023-04-15T19:53:53.889Z,102022.72
2023-04-15T19:56:21.072Z,102026.44
2023-04-15T19:58:52.769Z,102028.63
2023-04-15T20:01:20.901Z,102032.25
2023-04-15T20:03:48.237Z,102041.53
2023-04-15T20:06:15.953Z,102037.69
2023-04-15T20:08:43.028Z,102042.19
2023-04-15T20:11:10.670Z,102038.53
2023-04-15T20:13:37.655Z,102038.16
2023-04-15T20:16:07.867Z,102047.03
2023-04-15T20:18:35.154Z,102043.16
2023-04-15T20:21:02.321Z,102047.50
2023-04-15T20:23:29.368Z,102053.22
2023-04-15T20:25:56.721Z,102050.38
2023-04-15T20:28:26.115Z,102047.63
2023-04-15T20:30:53.807Z,102054.72
2023-04-15T20:33:22.233Z,102061.66
2023-04-15T20:35:49.312Z,102064.09
2023-04-15T20:38:16.483Z,102059.06
2023-04-15T20:40:43.687Z,102065.53
2023-04-15T20:43:10.846Z,102066.44
2023-04-15T20:45:39.024Z,102059.69
2023-04-15T20:48:06.642Z,102067.31
2023-04-15T20:50:33.645Z,102066.78
2023-04-15T20:53:00.882Z,102073.75
2023-04-15T20:55:30.216Z,102072.88
2023-04-15T20:57:59.308Z,102066.66
2023-04-15T21:00:26.356Z,102072.56
2023-04-15T21:02:53.474Z,102078.97
2023-04-15T21:05:20.594Z,102071.69
2023-04-15T21:07:47.562Z,102074.03
2023-04-15T21:10:14.559Z,102076.72
2023-04-15T21:12:42.525Z,102079.31
2023-04-15T21:15:10.215Z,102085.19
2023-04-15T21:17:37.332Z,102075.88
2023-04-15T21:20:05.030Z,102083.56
2023-04-15T21:22:32.136Z,102080.28
2023-04-15T21:24:59.120Z,102083.16
2023-04-15T21:27:26.214Z,102078.75
2023-04-15T21:29:53.352Z,102083.94
2023-04-15T21:32:20.401Z,102079.81
2023-04-15T21:34:47.452Z,102081.94
2023-04-15T21:37:14.481Z,102083.34
2023-04-15T21:39:41.549Z,102091.53
2023-04-15T21:42:08.635Z,102095.13
2023-04-15T21:44:35.691Z,102099.84
2023-04-15T21:47:02.692Z,102099.59
2023-04-15T21:49:29.820Z,102107.19
2023-04-15T21:52:01.224Z,102102.88
2023-04-15T21:54:28.816Z,102105.38
2023-04-15T21:56:56.975Z,102113.63
2023-04-15T21:59:24.033Z,102115.72
2023-04-15T22:01:51.083Z,102120.00
2023-04-15T22:04:18.354Z,102119.63
2023-04-15T22:06:45.573Z,102126.22
2023-04-15T22:09:14.329Z,102118.06
2023-04-15T22:11:41.549Z,102112.34
2023-04-15T22:14:09.148Z,102121.94
2023-04-15T22:16:36.351Z,102125.13
2023-04-15T22:19:03.406Z,102117.84
2023-04-15T22:21:30.366Z,102123.84
2023-04-15T22:24:33.895Z,102129.50
2023-04-15T22:26:44.559Z,102140.84
2023-04-15T22:29:11.616Z,102129.63
2023-04-15T22:31:38.778Z,102137.44
2023-04-15T22:34:05.841Z,102135.31
2023-04-15T22:36:32.890Z,102146.06
2023-04-15T22:38:59.943Z,102136.34
2023-04-15T22:41:27.292Z,102135.88
2023-04-15T22:43:54.240Z,102130.78
2023-04-15T22:46:21.388Z,102129.75
2023-04-15T22:48:48.488Z,102139.91
2023-04-15T22:51:22.798Z,102141.13
2023-04-15T22:53:50.717Z,102146.19
2023-04-15T22:56:22.837Z,102142.47
2023-04-15T22:58:50.676Z,102150.66
2023-04-15T23:01:18.491Z,102151.25
2023-04-15T23:03:56.053Z,102152.97
2023-04-15T23:06:24.646Z,102163.34
2023-04-15T23:08:52.102Z,102155.03
2023-04-15T23:11:19.066Z,102164.38
2023-04-15T23:13:46.253Z,102155.91
2023-04-15T23:16:13.234Z,102165.44
2023-04-15T23:18:40.222Z,102158.47
2023-04-15T23:21:07.258Z,102165.03
2023-04-15T23:23:34.217Z,102166.47
2023-04-15T23:26:01.834Z,102163.72
2023-04-15T23:28:28.797Z,102160.34
2023-04-15T23:31:00.652Z,102166.16
2023-04-15T23:33:27.902Z,102162.59
2023-04-15T23:35:55.042Z,102161.47
2023-04-15T23:38:22.048Z,102167.81
2023-04-15T23:40:50.353Z,102165.84
2023-04-15T23:43:17.352Z,102164.75
2023-04-15T23:45:44.387Z,102163.47
2023-04-15T23:48:11.365Z,102163.84
2023-04-15T23:50:38.380Z,102161.16
2023-04-15T23:53:05.554Z,102169.88
2023-04-15T23:55:32.605Z,102166.72
2023-04-15T23:57:59.586Z,102166.59
